Time;durP1;ratioP1;P1;durP2;ratioP2;P2;SDS_P1;SDS_P2;PMS_P1;PMS_P2;Temp;Humidity;BMP_temperature;BMP_pressure;BME280_temperature;BME280_humidity;BME280_pressure;Samples;Min_cycle;Max_cycle;Signal;HPM_P1;HPM_P2
2023/01/25 00:01:43;;;;;;;32.60;22.95;;;1.30;99.90;;;;;;5104663;28;20951;-80
2023/01/25 00:04:09;;;;;;;29.97;21.70;;;1.30;99.90;;;;;;5088792;28;20425;-80
2023/01/25 00:06:35;;;;;;;30.53;21.80;;;1.30;99.90;;;;;;5091102;28;20406;-80
2023/01/25 00:09:00;;;;;;;31.95;21.98;;;1.20;99.90;;;;;;5097108;28;20877;-80
2023/01/25 00:11:26;;;;;;;31.93;22.77;;;1.30;99.90;;;;;;5089085;28;20404;-79
2023/01/25 00:13:55;;;;;;;32.87;22.77;;;1.20;99.90;;;;;;5096482;28;20397;-79
2023/01/25 00:16:22;;;;;;;32.25;22.60;;;1.20;99.90;;;;;;5107213;28;20732;-80
2023/01/25 00:18:48;;;;;;;31.92;22.65;;;1.20;99.90;;;;;;5081632;28;20979;-79
2023/01/25 00:21:16;;;;;;;33.07;23.27;;;1.20;99.90;;;;;;5100536;28;20510;-80
2023/01/25 00:23:42;;;;;;;32.25;22.83;;;1.20;99.90;;;;;;5071518;28;20398;-80
2023/01/25 00:26:08;;;;;;;33.35;22.50;;;1.20;99.90;;;;;;5101257;28;20412;-79
2023/01/25 00:28:34;;;;;;;32.15;22.85;;;1.20;99.90;;;;;;5089313;28;20394;-79
2023/01/25 00:31:01;;;;;;;33.50;22.70;;;1.20;99.90;;;;;;5102843;28;20402;-80
2023/01/25 00:33:36;;;;;;;34.40;23.52;;;1.20;99.90;;;;;;5106875;28;20391;-80
2023/01/25 00:36:20;;;;;;;31.20;22.10;;;1.20;99.90;;;;;;5093343;28;20527;-79
2023/01/25 00:38:46;;;;;;;35.45;23.60;;;1.20;99.90;;;;;;5106030;28;20940;-80
2023/01/25 00:41:12;;;;;;;32.70;22.70;;;1.20;99.90;;;;;;5119098;27;20426;-80
2023/01/25 00:43:38;;;;;;;33.72;22.92;;;1.20;99.90;;;;;;5106302;27;20408;-80
2023/01/25 00:46:03;;;;;;;33.87;23.60;;;1.30;99.90;;;;;;5094559;27;20403;-78
2023/01/25 00:48:29;;;;;;;33.53;23.20;;;1.20;99.90;;;;;;5110928;27;20418;-77
2023/01/25 00:50:59;;;;;;;34.53;23.23;;;1.20;99.90;;;;;;5129538;27;20404;-78
2023/01/25 00:53:25;;;;;;;35.60;23.83;;;1.20;99.90;;;;;;5129031;27;20491;-78
2023/01/25 00:55:54;;;;;;;34.10;22.77;;;1.20;99.90;;;;;;5117150;27;20424;-78
2023/01/25 00:58:19;;;;;;;35.65;23.85;;;1.20;99.90;;;;;;5128351;27;20408;-78
2023/01/25 01:00:45;;;;;;;37.23;24.13;;;1.20;99.90;;;;;;5148025;27;20413;-77
2023/01/25 01:03:10;;;;;;;34.47;23.33;;;1.20;99.90;;;;;;5111221;27;20929;-78
2023/01/25 01:05:36;;;;;;;35.33;24.00;;;1.30;99.90;;;;;;5141643;27;20535;-78
2023/01/25 01:08:02;;;;;;;34.40;22.83;;;1.20;99.90;;;;;;5129713;27;20757;-78
2023/01/25 01:10:28;;;;;;;34.17;23.35;;;1.20;99.90;;;;;;5131111;27;20402;-77
2023/01/25 01:12:54;;;;;;;32.75;22.42;;;1.30;99.90;;;;;;5129489;27;20459;-78
2023/01/25 01:15:20;;;;;;;33.53;23.40;;;1.20;99.90;;;;;;5129405;27;20397;-78
2023/01/25 01:17:46;;;;;;;35.40;24.27;;;1.20;99.90;;;;;;5127802;27;20393;-78
2023/01/25 01:20:12;;;;;;;34.17;22.60;;;1.20;99.90;;;;;;5122426;27;20438;-78
2023/01/25 01:22:38;;;;;;;36.27;24.07;;;1.20;99.90;;;;;;5122746;27;20792;-78
2023/01/25 01:25:04;;;;;;;37.43;24.00;;;1.20;99.90;;;;;;5128463;27;20405;-78
2023/01/25 01:27:29;;;;;;;34.55;23.15;;;1.20;99.90;;;;;;5110924;27;20393;-77
2023/01/25 01:29:55;;;;;;;38.35;24.45;;;1.20;99.90;;;;;;5093487;27;20394;-78
2023/01/25 01:32:20;;;;;;;36.20;24.40;;;1.20;99.90;;;;;;5110123;28;20805;-78
2023/01/25 01:34:46;;;;;;;34.37;23.40;;;1.20;99.90;;;;;;5128397;27;20432;-78
2023/01/25 01:37:12;;;;;;;35.17;23.15;;;1.20;99.90;;;;;;5127456;27;20424;-78
2023/01/25 01:39:37;;;;;;;33.73;22.87;;;1.20;99.90;;;;;;5127283;27;20448;-78
2023/01/25 01:42:03;;;;;;;35.22;23.13;;;1.20;99.90;;;;;;5127644;27;20770;-78
2023/01/25 01:44:50;;;;;;;33.60;22.75;;;1.20;99.90;;;;;;5109551;27;21423;-78
2023/01/25 01:47:27;;;;;;;37.20;23.75;;;1.20;99.90;;;;;;5094981;27;20403;-78
2023/01/25 01:49:58;;;;;;;36.10;23.95;;;1.20;99.90;;;;;;5110104;28;20410;-77
2023/01/25 01:52:29;;;;;;;34.63;22.83;;;1.20;99.90;;;;;;5120331;28;20429;-78
2023/01/25 01:55:01;;;;;;;36.38;23.50;;;1.20;99.90;;;;;;5103640;27;20426;-78
2023/01/25 01:57:36;;;;;;;34.83;23.47;;;1.20;99.90;;;;;;5107918;27;20440;-78
2023/01/25 02:00:11;;;;;;;37.10;23.80;;;1.10;99.90;;;;;;5114539;28;20433;-78
2023/01/25 02:02:37;;;;;;;35.58;23.25;;;1.10;99.90;;;;;;5099836;28;20406;-77
2023/01/25 02:05:05;;;;;;;37.60;23.65;;;1.10;99.90;;;;;;5110250;28;20776;-78
2023/01/25 02:07:34;;;;;;;36.57;24.23;;;1.00;99.90;;;;;;5109929;28;20399;-78
2023/01/25 02:10:00;;;;;;;37.67;23.90;;;1.00;99.90;;;;;;5093291;28;20837;-78
2023/01/25 02:12:27;;;;;;;39.63;24.73;;;1.00;99.90;;;;;;5110029;28;20401;-78
2023/01/25 02:14:53;;;;;;;38.45;24.73;;;1.00;99.90;;;;;;5109922;28;20401;-78
2023/01/25 02:17:29;;;;;;;37.30;24.98;;;1.00;99.90;;;;;;5110439;28;20395;-78
2023/01/25 02:20:19;;;;;;;38.83;25.25;;;0.90;99.90;;;;;;5114653;27;20417;-78
2023/01/25 02:23:12;;;;;;;39.58;25.63;;;0.90;99.90;;;;;;5097619;27;20502;-77
2023/01/25 02:25:40;;;;;;;40.00;25.67;;;0.90;99.90;;;;;;5109735;27;20406;-78
2023/01/25 02:28:33;;;;;;;40.90;25.98;;;0.90;99.90;;;;;;5132248;27;20401;-77
2023/01/25 02:30:58;;;;;;;39.22;25.40;;;0.80;99.90;;;;;;5116983;27;20418;-78
2023/01/25 02:33:26;;;;;;;41.70;26.60;;;0.80;99.90;;;;;;5123252;27;20396;-77
2023/01/25 02:36:07;;;;;;;43.28;27.20;;;0.80;99.90;;;;;;5129831;27;20444;-78
2023/01/25 02:38:42;;;;;;;40.00;25.65;;;0.80;99.90;;;;;;5113987;27;20776;-77
2023/01/25 02:41:16;;;;;;;40.83;26.10;;;0.80;99.90;;;;;;5131743;27;20481;-77
2023/01/25 02:43:41;;;;;;;43.63;25.93;;;0.80;99.90;;;;;;5132036;27;20484;-77
2023/01/25 02:46:31;;;;;;;41.77;25.47;;;0.80;99.90;;;;;;5120362;27;20491;-77
2023/01/25 02:48:59;;;;;;;43.05;27.10;;;0.80;99.90;;;;;;5118929;27;20440;-77
2023/01/25 02:51:27;;;;;;;41.65;26.00;;;0.80;99.90;;;;;;5132384;27;21682;-78
2023/01/25 02:53:54;;;;;;;41.87;26.40;;;0.80;99.90;;;;;;5118085;27;20417;-78
2023/01/25 02:56:20;;;;;;;40.90;25.13;;;0.70;99.90;;;;;;5121878;27;20442;-78
2023/01/25 02:58:46;;;;;;;39.90;24.90;;;0.70;99.90;;;;;;5111184;27;20396;-78
2023/01/25 03:01:13;;;;;;;40.13;24.15;;;0.70;99.90;;;;;;5121983;27;21642;-77
2023/01/25 03:03:39;;;;;;;38.58;25.08;;;0.70;99.90;;;;;;5099214;27;20767;-78
2023/01/25 03:06:06;;;;;;;42.35;25.90;;;0.70;99.90;;;;;;5110190;27;20415;-78
2023/01/25 03:08:32;;;;;;;41.83;26.35;;;0.70;99.90;;;;;;5111365;27;20398;-77
2023/01/25 03:10:59;;;;;;;41.00;25.35;;;0.70;99.90;;;;;;5095706;27;20447;-77
2023/01/25 03:13:25;;;;;;;40.42;26.20;;;0.70;99.90;;;;;;5095700;27;20406;-78
2023/01/25 03:15:51;;;;;;;43.83;26.48;;;0.70;99.90;;;;;;5113008;27;20394;-77
2023/01/25 03:18:18;;;;;;;45.50;26.53;;;0.70;99.90;;;;;;5112878;27;20755;-77
2023/01/25 03:20:43;;;;;;;44.80;27.65;;;0.70;99.90;;;;;;5112378;27;20426;-78
2023/01/25 03:23:09;;;;;;;44.30;26.60;;;0.70;99.90;;;;;;5100607;27;20449;-77
2023/01/25 03:25:35;;;;;;;46.47;28.33;;;0.70;99.90;;;;;;5120550;27;20772;-78
2023/01/25 03:28:00;;;;;;;45.93;28.37;;;0.70;99.90;;;;;;5131038;27;20403;-77
2023/01/25 03:30:26;;;;;;;45.65;28.08;;;0.70;99.90;;;;;;5131775;27;20525;-77
2023/01/25 03:32:51;;;;;;;49.07;30.17;;;0.70;99.90;;;;;;5118020;27;20389;-78
2023/01/25 03:35:17;;;;;;;49.92;29.70;;;0.70;99.90;;;;;;5125095;27;20407;-78
2023/01/25 03:37:43;;;;;;;49.30;29.17;;;0.60;99.90;;;;;;5108788;27;20533;-79
2023/01/25 03:40:09;;;;;;;48.70;29.58;;;0.60;99.90;;;;;;5113597;27;20442;-78
2023/01/25 03:42:35;;;;;;;48.97;30.27;;;0.70;99.90;;;;;;5120139;27;20400;-78
2023/01/25 03:45:01;;;;;;;47.75;29.73;;;0.70;99.90;;;;;;5120691;27;20437;-78
2023/01/25 03:47:26;;;;;;;50.23;30.03;;;0.70;99.90;;;;;;5111952;27;20395;-78
2023/01/25 03:49:52;;;;;;;48.00;29.58;;;0.70;99.90;;;;;;5128999;27;20886;-78
2023/01/25 03:52:17;;;;;;;45.17;28.47;;;0.70;99.90;;;;;;5127754;27;20409;-78
2023/01/25 03:54:43;;;;;;;45.97;28.00;;;0.70;99.90;;;;;;5114763;27;20402;-78
2023/01/25 03:57:09;;;;;;;47.65;28.70;;;0.70;99.90;;;;;;5103574;27;20406;-78
2023/01/25 03:59:34;;;;;;;48.43;29.67;;;0.70;99.90;;;;;;5122607;27;20469;-78
2023/01/25 04:02:01;;;;;;;51.43;31.03;;;0.70;99.90;;;;;;5119900;27;20436;-78
2023/01/25 04:04:27;;;;;;;49.03;29.80;;;0.70;99.90;;;;;;5094716;27;20843;-78
2023/01/25 04:06:52;;;;;;;50.90;29.90;;;0.70;99.90;;;;;;5110360;27;20423;-78
2023/01/25 04:09:18;;;;;;;51.07;30.83;;;0.70;99.90;;;;;;5121720;27;20401;-78
2023/01/25 04:11:44;;;;;;;50.92;30.92;;;0.70;99.90;;;;;;5113591;27;21035;-78
2023/01/25 04:14:10;;;;;;;52.07;31.47;;;0.70;99.90;;;;;;5129945;27;20393;-78
2023/01/25 04:16:35;;;;;;;49.15;30.33;;;0.70;99.90;;;;;;5108832;27;20966;-79
2023/01/25 04:19:01;;;;;;;50.80;30.70;;;0.70;99.90;;;;;;5120547;27;20506;-78
2023/01/25 04:21:27;;;;;;;52.67;31.40;;;0.70;99.90;;;;;;5123257;27;20433;-78
2023/01/25 04:23:52;;;;;;;50.47;30.65;;;0.70;99.90;;;;;;5129027;27;20476;-78
2023/01/25 04:26:18;;;;;;;51.47;31.30;;;0.70;99.90;;;;;;5106081;27;20403;-78
2023/01/25 04:28:43;;;;;;;52.13;30.33;;;0.80;99.90;;;;;;5100606;28;20843;-78
2023/01/25 04:31:10;;;;;;;52.00;30.90;;;0.80;99.90;;;;;;5102409;27;20461;-78
2023/01/25 04:33:35;;;;;;;50.65;31.55;;;0.70;99.90;;;;;;5102467;27;20931;-78
2023/01/25 04:36:02;;;;;;;52.25;31.52;;;0.70;99.90;;;;;;5107913;27;20399;-78
2023/01/25 04:38:27;;;;;;;49.10;29.63;;;0.70;99.90;;;;;;5128510;27;20404;-78
2023/01/25 04:40:53;;;;;;;50.47;30.10;;;0.70;99.90;;;;;;5124442;27;20422;-78
2023/01/25 04:43:19;;;;;;;51.70;31.03;;;0.70;99.90;;;;;;5121017;27;20888;-78
2023/01/25 04:45:45;;;;;;;53.42;31.90;;;0.70;99.90;;;;;;5110324;27;20402;-78
2023/01/25 04:48:12;;;;;;;51.93;30.90;;;0.70;99.90;;;;;;5110783;27;20410;-78
2023/01/25 04:50:39;;;;;;;54.03;31.23;;;0.60;99.90;;;;;;5123058;27;20402;-78
2023/01/25 04:53:06;;;;;;;54.67;31.27;;;0.60;99.90;;;;;;5128822;27;20407;-78
2023/01/25 04:55:32;;;;;;;49.88;30.10;;;0.60;99.90;;;;;;5125943;27;20402;-78
2023/01/25 04:57:59;;;;;;;51.28;30.75;;;0.70;99.90;;;;;;5111248;27;20779;-78
2023/01/25 05:00:24;;;;;;;52.38;30.75;;;0.70;99.90;;;;;;5112999;27;20748;-78
2023/01/25 05:02:50;;;;;;;53.47;31.30;;;0.70;99.90;;;;;;5118636;27;20397;-78
2023/01/25 05:05:16;;;;;;;53.55;30.65;;;0.60;99.90;;;;;;5122995;27;20408;-78
2023/01/25 05:07:42;;;;;;;51.60;30.27;;;0.60;99.90;;;;;;5101690;27;20402;-78
2023/01/25 05:10:10;;;;;;;53.08;31.45;;;0.60;99.90;;;;;;5110390;27;20413;-78
2023/01/25 05:12:36;;;;;;;56.63;31.17;;;0.60;99.90;;;;;;5116972;27;20397;-78
2023/01/25 05:15:01;;;;;;;53.90;31.95;;;0.60;99.90;;;;;;5095631;27;20487;-78
2023/01/25 05:17:27;;;;;;;57.47;32.63;;;0.60;99.90;;;;;;5119126;27;20405;-78
2023/01/25 05:19:53;;;;;;;57.47;32.45;;;0.60;99.90;;;;;;5101961;27;20519;-78
2023/01/25 05:22:21;;;;;;;57.08;32.55;;;0.60;99.90;;;;;;5124645;27;20488;-78
2023/01/25 05:24:47;;;;;;;57.15;31.77;;;0.60;99.90;;;;;;5120106;27;20399;-78
2023/01/25 05:27:16;;;;;;;56.30;31.38;;;0.60;99.90;;;;;;5107735;27;20490;-78
2023/01/25 05:29:43;;;;;;;57.33;32.63;;;0.60;99.90;;;;;;5120134;27;20406;-78
2023/01/25 05:32:11;;;;;;;58.50;32.85;;;0.60;99.90;;;;;;5125010;27;20812;-78
2023/01/25 05:34:38;;;;;;;56.08;33.20;;;0.60;99.90;;;;;;5118835;27;20402;-78
2023/01/25 05:37:05;;;;;;;62.27;34.20;;;0.60;99.90;;;;;;5110117;27;20400;-78
2023/01/25 05:39:31;;;;;;;62.35;33.50;;;0.50;99.90;;;;;;5110847;27;20427;-78
2023/01/25 05:41:57;;;;;;;63.97;35.47;;;0.50;99.90;;;;;;5124869;27;20415;-78
2023/01/25 05:44:24;;;;;;;59.85;33.35;;;0.50;99.90;;;;;;5118452;28;20405;-78
2023/01/25 05:46:49;;;;;;;63.90;35.67;;;0.50;99.90;;;;;;5120163;27;20667;-78
2023/01/25 05:49:16;;;;;;;61.05;34.42;;;0.60;99.90;;;;;;5125083;27;20397;-78
2023/01/25 05:51:42;;;;;;;65.10;34.60;;;0.50;99.90;;;;;;5117463;27;20967;-78
2023/01/25 05:54:12;;;;;;;64.85;34.55;;;0.50;99.90;;;;;;5106650;27;20461;-78
2023/01/25 05:56:38;;;;;;;66.72;35.55;;;0.50;99.90;;;;;;5128015;27;20832;-78
2023/01/25 05:59:04;;;;;;;67.03;34.57;;;0.50;99.90;;;;;;5122605;27;20489;-78
2023/01/25 06:01:29;;;;;;;66.03;35.15;;;0.50;99.90;;;;;;5127760;27;20454;-79
2023/01/25 06:03:55;;;;;;;67.53;35.77;;;0.50;99.90;;;;;;5114287;27;20745;-79
2023/01/25 06:06:21;;;;;;;71.67;37.83;;;0.50;99.90;;;;;;5107089;27;20393;-79
2023/01/25 06:08:48;;;;;;;68.77;36.13;;;0.50;99.90;;;;;;5144791;27;20386;-79
2023/01/25 06:11:16;;;;;;;68.00;35.80;;;0.40;99.90;;;;;;5120979;27;20406;-78
2023/01/25 06:13:43;;;;;;;72.22;37.60;;;0.40;99.90;;;;;;5111695;27;20449;-78
2023/01/25 06:16:08;;;;;;;69.60;36.53;;;0.40;99.90;;;;;;5146679;27;20424;-79
2023/01/25 06:18:34;;;;;;;73.80;37.77;;;0.40;99.90;;;;;;5140582;27;20430;-78
2023/01/25 06:21:01;;;;;;;74.30;38.55;;;0.40;99.90;;;;;;5104239;27;20428;-79
2023/01/25 06:23:27;;;;;;;72.28;36.70;;;0.40;99.90;;;;;;5116159;27;20411;-79
2023/01/25 06:25:57;;;;;;;71.28;36.35;;;0.40;99.90;;;;;;5120930;27;20400;-79
2023/01/25 06:28:22;;;;;;;71.80;37.55;;;0.40;99.90;;;;;;5122238;27;20434;-79
2023/01/25 06:30:48;;;;;;;70.20;37.58;;;0.40;99.90;;;;;;5125065;27;20819;-78
2023/01/25 06:33:14;;;;;;;71.72;37.70;;;0.40;99.90;;;;;;5120951;27;20505;-78
2023/01/25 06:35:39;;;;;;;70.90;37.53;;;0.40;99.90;;;;;;5124200;27;20740;-79
2023/01/25 06:38:05;;;;;;;68.32;36.42;;;0.40;99.90;;;;;;5114286;27;20939;-78
2023/01/25 06:40:31;;;;;;;69.20;37.33;;;0.40;99.90;;;;;;5117890;27;20785;-78
2023/01/25 06:43:08;;;;;;;65.97;35.47;;;0.30;99.90;;;;;;5119608;27;20398;-78
2023/01/25 06:45:33;;;;;;;66.80;36.05;;;0.30;99.90;;;;;;5116723;27;20411;-78
2023/01/25 06:47:59;;;;;;;62.97;34.77;;;0.30;99.90;;;;;;5121752;27;21027;-78
2023/01/25 06:50:25;;;;;;;69.95;36.67;;;0.30;99.90;;;;;;5108302;27;20445;-78
2023/01/25 06:52:54;;;;;;;68.47;37.00;;;0.30;99.90;;;;;;5112422;27;21024;-78
2023/01/25 06:55:21;;;;;;;69.40;37.78;;;0.20;99.90;;;;;;5111613;27;20502;-79
2023/01/25 06:57:47;;;;;;;66.90;35.53;;;0.20;99.90;;;;;;5096572;27;20406;-78
2023/01/25 07:00:14;;;;;;;68.75;37.35;;;0.20;99.90;;;;;;5123420;27;20476;-79
2023/01/25 07:02:40;;;;;;;70.60;37.97;;;0.20;99.90;;;;;;5120183;27;20444;-79
2023/01/25 07:05:06;;;;;;;69.80;37.90;;;0.20;99.90;;;;;;5127359;27;20434;-78
2023/01/25 07:07:32;;;;;;;71.97;37.87;;;0.20;99.90;;;;;;5113951;27;20451;-79
2023/01/25 07:09:59;;;;;;;69.90;38.03;;;0.20;99.90;;;;;;5116233;27;20423;-78
2023/01/25 07:12:26;;;;;;;68.07;38.20;;;0.20;99.90;;;;;;5109665;27;20412;-79
2023/01/25 07:14:52;;;;;;;69.85;37.95;;;0.30;99.90;;;;;;5115327;27;20410;-78
2023/01/25 07:17:18;;;;;;;69.88;37.45;;;0.30;99.90;;;;;;5119170;27;20792;-79
2023/01/25 07:19:43;;;;;;;72.10;38.57;;;0.30;99.90;;;;;;5115511;27;20422;-79
2023/01/25 07:22:09;;;;;;;68.38;37.85;;;0.20;99.90;;;;;;5128058;27;20842;-79
2023/01/25 07:24:34;;;;;;;71.47;39.07;;;0.20;99.90;;;;;;5107721;27;20452;-79
2023/01/25 07:27:00;;;;;;;72.07;39.03;;;0.20;99.90;;;;;;5127365;27;20408;-79
2023/01/25 07:29:25;;;;;;;72.60;39.13;;;0.20;99.90;;;;;;5115683;27;20447;-78
2023/01/25 07:31:51;;;;;;;71.83;38.67;;;0.30;99.90;;;;;;5109958;27;20404;-79
2023/01/25 07:34:17;;;;;;;70.53;38.17;;;0.20;99.90;;;;;;5124555;27;20485;-78
2023/01/25 07:36:43;;;;;;;73.85;39.70;;;0.20;99.90;;;;;;5118551;27;20425;-79
2023/01/25 07:39:10;;;;;;;75.05;39.50;;;0.20;99.90;;;;;;5124250;27;20399;-79
2023/01/25 07:41:36;;;;;;;73.72;38.83;;;0.20;99.90;;;;;;5109352;27;20432;-79
2023/01/25 07:44:02;;;;;;;73.22;38.55;;;0.10;99.90;;;;;;5122459;27;20417;-79
2023/01/25 07:46:28;;;;;;;75.05;39.55;;;0.10;99.90;;;;;;5095490;27;20934;-79
2023/01/25 07:48:53;;;;;;;72.95;39.88;;;0.10;99.90;;;;;;5123123;27;20410;-79
2023/01/25 07:51:21;;;;;;;74.05;39.35;;;0.10;99.90;;;;;;5111150;27;20896;-79
2023/01/25 07:53:51;;;;;;;71.43;39.10;;;0.10;99.90;;;;;;5122371;27;20504;-79
2023/01/25 07:56:18;;;;;;;72.38;38.20;;;0.10;99.90;;;;;;5103909;27;20410;-79
2023/01/25 07:58:44;;;;;;;75.93;39.80;;;0.20;99.90;;;;;;5127704;27;20683;-79
2023/01/25 08:01:12;;;;;;;74.55;39.03;;;0.20;99.90;;;;;;5127189;27;20424;-79
2023/01/25 08:03:38;;;;;;;70.88;37.92;;;0.10;99.90;;;;;;5112963;27;20407;-78
2023/01/25 08:06:05;;;;;;;74.32;39.67;;;0.20;99.90;;;;;;5127156;27;20806;-78
2023/01/25 08:08:36;;;;;;;77.28;40.45;;;0.20;99.90;;;;;;5112529;27;20395;-79
2023/01/25 08:11:13;;;;;;;77.85;40.80;;;0.10;99.90;;;;;;5093028;27;20399;-79
2023/01/25 08:13:39;;;;;;;75.72;39.90;;;0.20;99.90;;;;;;5119497;27;20418;-79
2023/01/25 08:16:05;;;;;;;73.35;39.83;;;0.10;99.90;;;;;;5093659;27;20395;-80
2023/01/25 08:18:31;;;;;;;77.68;41.30;;;0.20;99.90;;;;;;5095891;27;20908;-78
2023/01/25 08:21:00;;;;;;;78.05;41.30;;;0.20;99.90;;;;;;5126229;27;20431;-78
2023/01/25 08:23:27;;;;;;;74.43;39.95;;;0.20;99.90;;;;;;5096215;27;20405;-78
2023/01/25 08:25:52;;;;;;;71.95;38.33;;;0.20;99.90;;;;;;5107557;27;20405;-78
2023/01/25 08:28:18;;;;;;;72.15;38.88;;;0.20;99.90;;;;;;5102299;27;20430;-78
2023/01/25 08:30:43;;;;;;;70.07;37.43;;;0.20;99.90;;;;;;5118815;27;20416;-77
2023/01/25 08:33:09;;;;;;;69.83;37.30;;;0.20;99.90;;;;;;5111012;27;20402;-78
2023/01/25 08:35:36;;;;;;;68.97;35.40;;;0.10;99.90;;;;;;5108590;27;20469;-78
2023/01/25 08:38:02;;;;;;;72.28;37.55;;;0.10;99.90;;;;;;5101291;27;20406;-78
2023/01/25 08:40:28;;;;;;;71.72;37.67;;;0.10;99.90;;;;;;5122125;27;20432;-78
2023/01/25 08:42:53;;;;;;;70.47;35.70;;;0.10;99.90;;;;;;5110309;27;21006;-78
2023/01/25 08:45:19;;;;;;;72.67;37.20;;;0.00;99.90;;;;;;5109752;27;20405;-78
2023/01/25 08:47:45;;;;;;;70.97;37.17;;;0.00;99.90;;;;;;5114315;27;20471;-78
2023/01/25 08:50:10;;;;;;;68.68;34.63;;;0.00;99.90;;;;;;5100252;27;20516;-78
2023/01/25 08:52:36;;;;;;;67.23;35.27;;;0.00;99.90;;;;;;5114450;27;20417;-78
2023/01/25 08:55:02;;;;;;;70.47;37.20;;;0.00;99.90;;;;;;5127770;27;20397;-78
2023/01/25 08:57:27;;;;;;;71.57;37.35;;;0.00;99.90;;;;;;5109918;27;20844;-78
2023/01/25 08:59:53;;;;;;;73.03;36.75;;;-0.10;99.90;;;;;;5109545;27;20530;-78
2023/01/25 09:02:20;;;;;;;75.00;37.10;;;-0.10;99.90;;;;;;5124224;27;20993;-78
2023/01/25 09:04:46;;;;;;;69.43;35.97;;;-0.10;99.90;;;;;;5110270;27;20476;-78
2023/01/25 09:07:11;;;;;;;70.33;36.80;;;0.00;99.90;;;;;;5124088;27;20752;-78
2023/01/25 09:09:37;;;;;;;73.33;37.47;;;0.00;99.90;;;;;;5126624;27;20393;-78
2023/01/25 09:12:03;;;;;;;71.72;37.60;;;0.00;99.90;;;;;;5120581;27;20803;-81
2023/01/25 09:14:29;;;;;;;72.82;38.05;;;0.00;99.90;;;;;;5119671;27;20530;-81
2023/01/25 09:16:54;;;;;;;70.68;37.10;;;0.00;99.90;;;;;;5120634;27;20397;-81
2023/01/25 09:19:20;;;;;;;70.27;36.57;;;0.00;99.90;;;;;;5115715;27;20495;-80
2023/01/25 09:21:47;;;;;;;69.15;35.72;;;0.00;99.90;;;;;;5121858;27;20450;-80
2023/01/25 09:24:13;;;;;;;70.05;36.20;;;0.00;99.90;;;;;;5125590;27;21002;-80
2023/01/25 09:26:41;;;;;;;69.57;36.70;;;0.00;99.90;;;;;;5118812;27;20776;-81
2023/01/25 09:29:07;;;;;;;64.25;34.72;;;0.00;99.90;;;;;;5109353;27;20417;-80
2023/01/25 09:31:33;;;;;;;61.90;35.23;;;0.00;99.90;;;;;;5090207;27;20475;-78
2023/01/25 09:33:59;;;;;;;60.30;34.37;;;0.00;99.90;;;;;;5114920;27;20760;-78
2023/01/25 09:36:25;;;;;;;57.10;33.30;;;0.00;99.90;;;;;;5102818;27;20426;-78
2023/01/25 09:38:50;;;;;;;57.03;32.23;;;-0.10;99.90;;;;;;5123647;27;20397;-80
2023/01/25 09:41:31;;;;;;;57.97;33.23;;;0.00;99.90;;;;;;5119762;27;20659;-78
2023/01/25 09:44:15;;;;;;;59.65;34.28;;;-0.10;99.90;;;;;;5095827;27;20421;-78
2023/01/25 09:46:47;;;;;;;55.83;32.33;;;-0.10;99.90;;;;;;5126660;27;21325;-78
2023/01/25 09:49:28;;;;;;;56.13;32.58;;;-0.10;99.90;;;;;;5124358;27;20416;-78
2023/01/25 09:52:18;;;;;;;58.75;33.15;;;-0.10;99.90;;;;;;5125771;27;20405;-78
2023/01/25 09:54:45;;;;;;;55.80;31.88;;;-0.10;99.90;;;;;;5117291;27;20416;-77
2023/01/25 09:57:25;;;;;;;55.00;31.38;;;-0.10;99.90;;;;;;5094560;27;20410;-78
2023/01/25 09:59:51;;;;;;;54.35;31.77;;;-0.10;99.90;;;;;;5118567;27;20424;-81
2023/01/25 10:02:29;;;;;;;54.45;32.10;;;-0.10;99.90;;;;;;5095309;27;20433;-80
2023/01/25 10:04:59;;;;;;;53.83;31.83;;;-0.20;99.90;;;;;;5107711;27;20870;-80
2023/01/25 10:07:29;;;;;;;54.65;31.58;;;-0.10;99.90;;;;;;5113647;27;20401;-81
2023/01/25 10:10:02;;;;;;;55.28;32.70;;;-0.10;99.90;;;;;;5106005;27;20534;-80
2023/01/25 10:12:35;;;;;;;52.80;31.67;;;-0.10;99.90;;;;;;5101949;28;20407;-80
2023/01/25 10:15:00;;;;;;;54.15;32.13;;;-0.10;99.90;;;;;;5118326;27;20834;-78
2023/01/25 10:17:38;;;;;;;54.78;31.75;;;-0.10;99.90;;;;;;5118303;27;20426;-78
2023/01/25 10:20:27;;;;;;;53.20;32.40;;;-0.10;99.90;;;;;;5101151;28;21011;-78
2023/01/25 10:23:22;;;;;;;53.75;31.73;;;-0.20;99.90;;;;;;5101451;27;20397;-78
2023/01/25 10:25:48;;;;;;;54.55;31.20;;;-0.10;99.90;;;;;;5101050;27;20402;-78
2023/01/25 10:28:37;;;;;;;59.35;33.63;;;-0.10;99.90;;;;;;5111274;27;20802;-80
2023/01/25 10:31:15;;;;;;;57.95;33.92;;;-0.10;99.90;;;;;;5097042;27;20485;-81
2023/01/25 10:33:43;;;;;;;57.77;33.43;;;-0.10;99.90;;;;;;5117617;28;20399;-81
2023/01/25 10:36:16;;;;;;;59.73;33.83;;;-0.10;99.90;;;;;;5108191;27;20761;-80
2023/01/25 10:38:45;;;;;;;54.70;32.25;;;-0.10;99.90;;;;;;5120620;27;20827;-78
2023/01/25 10:41:28;;;;;;;56.75;32.65;;;-0.10;99.90;;;;;;5117936;27;20803;-78
2023/01/25 10:46:49;;;;;;;63.13;35.03;;;-0.10;99.90;;;;;;5099318;27;20482;-78
2023/01/25 10:49:23;;;;;;;64.45;34.28;;;-0.10;99.90;;;;;;5126661;27;20404;-78
2023/01/25 10:51:48;;;;;;;64.32;34.08;;;-0.10;99.90;;;;;;5129643;27;20446;-78
2023/01/25 10:54:15;;;;;;;65.40;35.45;;;-0.10;99.90;;;;;;5122642;27;20908;-78
2023/01/25 10:56:43;;;;;;;65.23;35.97;;;-0.10;99.90;;;;;;5122019;27;20535;-78
2023/01/25 10:59:24;;;;;;;66.30;36.70;;;-0.10;99.90;;;;;;5124664;27;20409;-79
2023/01/25 11:01:50;;;;;;;68.40;36.88;;;0.00;99.90;;;;;;5125495;27;20411;-78
2023/01/25 11:04:24;;;;;;;67.45;36.85;;;0.00;99.90;;;;;;5122120;27;20430;-79
2023/01/25 11:06:51;;;;;;;66.60;35.90;;;0.00;99.90;;;;;;5111791;27;20395;-78
2023/01/25 11:09:19;;;;;;;65.80;34.33;;;0.10;99.90;;;;;;5111919;27;20395;-79
2023/01/25 11:11:54;;;;;;;61.08;34.00;;;0.10;99.90;;;;;;5110725;27;20455;-78
2023/01/25 11:14:23;;;;;;;65.28;34.45;;;0.10;99.90;;;;;;5102493;27;20399;-78
2023/01/25 11:16:49;;;;;;;66.15;36.60;;;0.20;99.90;;;;;;5121017;27;20404;-78
2023/01/25 11:19:34;;;;;;;66.32;35.25;;;0.20;99.90;;;;;;5120641;27;20397;-78
2023/01/25 11:22:03;;;;;;;69.78;36.55;;;0.20;99.90;;;;;;5097300;27;20412;-78
2023/01/25 11:24:34;;;;;;;68.47;34.97;;;0.30;99.90;;;;;;5125255;27;20425;-78
2023/01/25 11:27:21;;;;;;;69.78;35.17;;;0.30;99.90;;;;;;5111421;27;20459;-78
2023/01/25 11:30:09;;;;;;;69.55;34.40;;;0.30;99.90;;;;;;5130248;27;20409;-78
2023/01/25 11:32:38;;;;;;;67.05;33.10;;;0.30;99.90;;;;;;5107861;27;20425;-79
2023/01/25 11:35:15;;;;;;;64.28;31.83;;;0.30;99.90;;;;;;5117243;27;20480;-78
2023/01/25 11:37:55;;;;;;;66.63;32.13;;;0.30;99.90;;;;;;5123875;27;21113;-78
2023/01/25 11:40:55;;;;;;;65.07;31.80;;;0.40;99.90;;;;;;5128558;27;20931;-78
2023/01/25 11:43:46;;;;;;;69.80;33.13;;;0.40;99.90;;;;;;5126611;27;20405;-78
2023/01/25 11:46:33;;;;;;;67.50;31.73;;;0.40;99.90;;;;;;5113721;27;20417;-78
2023/01/25 11:49:30;;;;;;;66.30;31.95;;;0.40;99.90;;;;;;5108903;27;20775;-78
2023/01/25 11:52:21;;;;;;;67.47;32.43;;;0.40;99.90;;;;;;5116374;27;20498;-78
2023/01/25 11:55:01;;;;;;;70.25;32.65;;;0.40;99.90;;;;;;5103327;27;20410;-78
2023/01/25 11:57:44;;;;;;;66.63;32.13;;;0.40;99.90;;;;;;5125007;27;20469;-79
2023/01/25 12:00:28;;;;;;;67.30;32.70;;;0.40;99.90;;;;;;5115545;27;20505;-78
2023/01/25 12:03:23;;;;;;;67.10;32.17;;;0.50;99.90;;;;;;5094126;27;20488;-78
2023/01/25 12:06:23;;;;;;;66.80;31.70;;;0.50;99.90;;;;;;5121462;27;20597;-79
2023/01/25 12:08:54;;;;;;;68.05;33.35;;;0.50;99.90;;;;;;5077186;27;20763;-78
2023/01/25 12:11:45;;;;;;;68.28;32.53;;;0.50;99.90;;;;;;5126878;27;20762;-78
2023/01/25 12:14:22;;;;;;;67.27;32.03;;;0.50;99.90;;;;;;5102012;27;20518;-79
2023/01/25 12:17:13;;;;;;;66.40;31.97;;;0.60;99.90;;;;;;5121422;27;20462;-78
2023/01/25 12:20:10;;;;;;;68.78;31.40;;;0.50;99.90;;;;;;5119892;27;20414;-78
2023/01/25 12:23:09;;;;;;;68.68;32.85;;;0.50;99.90;;;;;;5112922;27;20846;-78
2023/01/25 12:26:02;;;;;;;68.95;32.45;;;0.60;99.90;;;;;;5119787;27;20403;-78
2023/01/25 12:28:49;;;;;;;67.65;30.73;;;0.60;99.90;;;;;;5112808;27;20412;-79
2023/01/25 12:31:31;;;;;;;63.35;29.75;;;0.60;99.90;;;;;;5111277;27;20410;-78
2023/01/25 12:34:03;;;;;;;66.53;29.63;;;0.60;99.90;;;;;;5112049;27;20910;-79
2023/01/25 12:36:47;;;;;;;70.90;30.85;;;0.60;99.90;;;;;;5110537;27;20445;-79
2023/01/25 12:39:24;;;;;;;70.50;31.25;;;0.60;99.90;;;;;;5117875;27;20403;-79
2023/01/25 12:41:59;;;;;;;76.55;32.75;;;0.60;99.90;;;;;;5116635;27;20948;-79
2023/01/25 12:44:32;;;;;;;70.35;30.73;;;0.60;99.90;;;;;;5131260;27;20809;-78
2023/01/25 12:47:13;;;;;;;67.87;30.23;;;0.60;99.90;;;;;;5120986;27;20461;-78
2023/01/25 12:49:54;;;;;;;72.72;31.83;;;0.60;99.90;;;;;;5110658;27;20441;-79
2023/01/25 12:52:29;;;;;;;72.97;31.30;;;0.60;99.90;;;;;;5130204;27;20431;-78